KBRO/BRO METAR and TAF weather

Enter ICAO airport designator
Station Type Date Time Source
KBRO METAR 2022/01/29 12:53 UTC NOAA

KBRO 291253Z 32005KT 10SM BKN120 09/06 A3046 RMK AO2 SLP312 T00940061 $


Station Type Date Time Source
KBRO Decoded METAR 2022/01/29 12:53 UTC NOAA

BROWNSVILLE/SOUTH PADRE IS, TX, United States (KBRO) 25-54N 97-25W 5M
Jan 29, 2022 - 07:53 AM EST / 2022.01.29 1253 UTC
Wind: from the NW (320 degrees) at 6 MPH (5 KT):0
Visibility: 10 mile(s):0
Sky conditions: mostly cloudy
Temperature: 48.9 F (9.4 C)
Dew Point: 43.0 F (6.1 C)
Relative Humidity: 79%
Pressure (altimeter): 30.46 in. Hg (1031 hPa)
ob: KBRO 291253Z 32005KT 10SM BKN120 09/06 A3046 RMK AO2 SLP312 T00940061
cycle: 13

Station Type Date Time Source
KBRO TAF 2022/01/29 12:22 UTC NOAA

TAF KBRO 291120Z 2912/3012 29006KT P6SM BKN110
FM292000 03006KT P6SM SCT120
FM292100 06006KT P6SM BKN120
FM292300 09005KT P6SM SCT250

Example: see airport list